sensor_id;sensor_type;location;lat;lon;timestamp;pressure;altitude;pressure_sealevel;temperature;humidity
17855;BME280;9053;53.358;6.382;2023-02-03T00:00:24;101968.41;;;9.27;100.00
17855;BME280;9053;53.358;6.382;2023-02-03T00:02:54;101939.47;;;9.25;100.00
17855;BME280;9053;53.358;6.382;2023-02-03T00:05:27;101942.00;;;9.24;100.00
17855;BME280;9053;53.358;6.382;2023-02-03T00:07:57;101936.75;;;9.24;100.00
17855;BME280;9053;53.358;6.382;2023-02-03T00:10:27;101963.00;;;9.24;100.00
17855;BME280;9053;53.358;6.382;2023-02-03T00:12:57;101967.25;;;9.22;100.00
17855;BME280;9053;53.358;6.382;2023-02-03T00:15:27;101963.00;;;9.24;100.00
17855;BME280;9053;53.358;6.382;2023-02-03T00:17:57;101960.47;;;9.25;100.00
17855;BME280;9053;53.358;6.382;2023-02-03T00:20:29;101948.16;;;9.24;100.00
17855;BME280;9053;53.358;6.382;2023-02-03T00:23:03;101945.34;;;9.21;100.00
17855;BME280;9053;53.358;6.382;2023-02-03T00:25:33;101947.97;;;9.21;100.00
17855;BME280;9053;53.358;6.382;2023-02-03T00:28:04;101947.97;;;9.21;100.00
17855;BME280;9053;53.358;6.382;2023-02-03T00:30:34;101947.97;;;9.21;100.00
17855;BME280;9053;53.358;6.382;2023-02-03T00:33:04;101959.38;;;9.22;100.00
17855;BME280;9053;53.358;6.382;2023-02-03T00:35:39;101940.03;;;9.20;100.00
17855;BME280;9053;53.358;6.382;2023-02-03T00:38:09;101913.78;;;9.20;100.00
17855;BME280;9053;53.358;6.382;2023-02-03T00:40:38;101921.56;;;9.18;100.00
17855;BME280;9053;53.358;6.382;2023-02-03T00:43:08;101928.59;;;9.19;100.00
17855;BME280;9053;53.358;6.382;2023-02-03T00:45:38;101925.09;;;9.19;100.00
17855;BME280;9053;53.358;6.382;2023-02-03T00:48:08;101917.22;;;9.19;100.00
17855;BME280;9053;53.358;6.382;2023-02-03T00:50:40;101903.28;;;9.20;100.00
17855;BME280;9053;53.358;6.382;2023-02-03T00:53:10;101882.19;;;9.18;100.00
17855;BME280;9053;53.358;6.382;2023-02-03T00:55:41;101884.72;;;9.17;100.00
17855;BME280;9053;53.358;6.382;2023-02-03T00:58:11;101888.34;;;9.19;100.00
17855;BME280;9053;53.358;6.382;2023-02-03T01:00:41;101879.56;;;9.18;100.00
17855;BME280;9053;53.358;6.382;2023-02-03T01:03:11;101887.53;;;9.20;100.00
17855;BME280;9053;53.358;6.382;2023-02-03T01:05:44;101896.31;;;9.20;100.00
17855;BME280;9053;53.358;6.382;2023-02-03T01:08:13;101920.84;;;9.21;100.00
17855;BME280;9053;53.358;6.382;2023-02-03T01:10:43;101915.59;;;9.21;100.00
17855;BME280;9053;53.358;6.382;2023-02-03T01:13:13;101878.94;;;9.22;100.00
17855;BME280;9053;53.358;6.382;2023-02-03T01:15:46;101864.88;;;9.22;100.00
17855;BME280;9053;53.358;6.382;2023-02-03T01:18:16;101887.53;;;9.20;100.00
17855;BME280;9053;53.358;6.382;2023-02-03T01:20:49;101900.72;;;9.21;100.00
17855;BME280;9053;53.358;6.382;2023-02-03T01:23:19;101878.84;;;9.21;100.00
17855;BME280;9053;53.358;6.382;2023-02-03T01:25:49;101890.34;;;9.23;100.00
17855;BME280;9053;53.358;6.382;2023-02-03T01:28:18;101893.84;;;9.23;100.00
17855;BME280;9053;53.358;6.382;2023-02-03T01:30:48;101906.16;;;9.24;100.00
17855;BME280;9053;53.358;6.382;2023-02-03T01:33:18;101902.00;;;9.28;100.00
17855;BME280;9053;53.358;6.382;2023-02-03T01:35:50;101905.41;;;9.27;100.00
17855;BME280;9053;53.358;6.382;2023-02-03T01:38:20;101894.91;;;9.27;100.00
17855;BME280;9053;53.358;6.382;2023-02-03T01:40:50;101881.78;;;9.27;100.00
17855;BME280;9053;53.358;6.382;2023-02-03T01:43:30;101867.88;;;9.28;100.00
17855;BME280;9053;53.358;6.382;2023-02-03T01:46:03;101867.75;;;9.26;100.00
17855;BME280;9053;53.358;6.382;2023-02-03T01:48:34;101844.06;;;9.25;100.00
17855;BME280;9053;53.358;6.382;2023-02-03T01:51:06;101839.63;;;9.24;100.00
17855;BME280;9053;53.358;6.382;2023-02-03T01:53:36;101851.94;;;9.25;100.00
17855;BME280;9053;53.358;6.382;2023-02-03T01:56:06;101875.66;;;9.26;100.00
17855;BME280;9053;53.358;6.382;2023-02-03T01:58:38;101890.66;;;9.29;100.00
17855;BME280;9053;53.358;6.382;2023-02-03T02:01:09;101889.88;;;9.30;100.00
17855;BME280;9053;53.358;6.382;2023-02-03T02:03:43;101881.16;;;9.31;100.00
17855;BME280;9053;53.358;6.382;2023-02-03T02:06:17;101865.41;;;9.31;100.00
17855;BME280;9053;53.358;6.382;2023-02-03T02:08:49;101857.53;;;9.31;100.00
17855;BME280;9053;53.358;6.382;2023-02-03T02:11:20;101852.28;;;9.31;100.00
17855;BME280;9053;53.358;6.382;2023-02-03T02:13:51;101852.38;;;9.32;100.00
17855;BME280;9053;53.358;6.382;2023-02-03T02:16:27;101857.44;;;9.29;100.00
17855;BME280;9053;53.358;6.382;2023-02-03T02:19:21;101863.50;;;9.28;100.00
17855;BME280;9053;53.358;6.382;2023-02-03T02:22:09;101861.78;;;9.29;100.00
17855;BME280;9053;53.358;6.382;2023-02-03T02:25:13;101857.38;;;9.28;100.00
17855;BME280;9053;53.358;6.382;2023-02-03T02:28:10;101865.25;;;9.28;100.00
17855;BME280;9053;53.358;6.382;2023-02-03T02:33:56;101857.28;;;9.26;100.00
17855;BME280;9053;53.358;6.382;2023-02-03T02:36:32;101858.16;;;9.27;100.00
17855;BME280;9053;53.358;6.382;2023-02-03T02:39:10;101857.28;;;9.26;100.00
17855;BME280;9053;53.358;6.382;2023-02-03T02:41:45;101838.00;;;9.26;100.00
17855;BME280;9053;53.358;6.382;2023-02-03T02:44:20;101839.78;;;9.27;100.00
17855;BME280;9053;53.358;6.382;2023-02-03T02:46:53;101841.50;;;9.26;100.00
17855;BME280;9053;53.358;6.382;2023-02-03T02:49:33;101828.50;;;9.28;100.00
17855;BME280;9053;53.358;6.382;2023-02-03T02:52:04;101825.75;;;9.26;100.00
17855;BME280;9053;53.358;6.382;2023-02-03T02:54:39;101828.34;;;9.25;100.00
17855;BME280;9053;53.358;6.382;2023-02-03T02:57:12;101824.72;;;9.23;100.00
17855;BME280;9053;53.358;6.382;2023-02-03T02:59:44;101821.09;;;9.21;100.00
17855;BME280;9053;53.358;6.382;2023-02-03T03:02:14;101820.19;;;9.20;100.00
17855;BME280;9053;53.358;6.382;2023-02-03T03:04:48;101817.47;;;9.19;100.00
17855;BME280;9053;53.358;6.382;2023-02-03T03:07:22;101797.22;;;9.16;100.00
17855;BME280;9053;53.358;6.382;2023-02-03T03:09:56;101798.94;;;9.16;100.00
17855;BME280;9053;53.358;6.382;2023-02-03T03:12:31;101791.06;;;9.16;100.00
17855;BME280;9053;53.358;6.382;2023-02-03T03:15:04;101799.03;;;9.17;100.00
17855;BME280;9053;53.358;6.382;2023-02-03T03:17:39;101804.28;;;9.17;100.00
17855;BME280;9053;53.358;6.382;2023-02-03T03:20:17;101821.72;;;9.17;100.00
17855;BME280;9053;53.358;6.382;2023-02-03T03:22:55;101803.44;;;9.18;100.00
17855;BME280;9053;53.358;6.382;2023-02-03T03:25:29;101801.72;;;9.19;100.00
17855;BME280;9053;53.358;6.382;2023-02-03T03:28:03;101801.66;;;9.17;100.00
17855;BME280;9053;53.358;6.382;2023-02-03T03:30:35;101807.88;;;9.19;100.00
17855;BME280;9053;53.358;6.382;2023-02-03T03:33:06;101810.59;;;9.21;100.00
17855;BME280;9053;53.358;6.382;2023-02-03T03:35:44;101815.84;;;9.21;100.00
17855;BME280;9053;53.358;6.382;2023-02-03T03:38:20;101805.25;;;9.19;100.00
17855;BME280;9053;53.358;6.382;2023-02-03T03:40:56;101819.31;;;9.20;100.00
17855;BME280;9053;53.358;6.382;2023-02-03T03:43:29;101828.88;;;9.19;100.00
17855;BME280;9053;53.358;6.382;2023-02-03T03:46:05;101809.69;;;9.20;100.00
17855;BME280;9053;53.358;6.382;2023-02-03T03:48:41;101811.50;;;9.21;100.00
17855;BME280;9053;53.358;6.382;2023-02-03T03:51:19;101820.34;;;9.23;100.00
17855;BME280;9053;53.358;6.382;2023-02-03T03:53:51;101812.31;;;9.20;100.00
17855;BME280;9053;53.358;6.382;2023-02-03T03:56:25;101807.13;;;9.22;100.00
17855;BME280;9053;53.358;6.382;2023-02-03T03:58:57;101808.88;;;9.21;100.00
17855;BME280;9053;53.358;6.382;2023-02-03T04:01:30;101819.31;;;9.20;100.00
17855;BME280;9053;53.358;6.382;2023-02-03T04:04:06;101804.44;;;9.20;100.00
17855;BME280;9053;53.358;6.382;2023-02-03T04:06:39;101818.47;;;9.21;100.00
17855;BME280;9053;53.358;6.382;2023-02-03T04:09:09;101822.72;;;9.19;100.00
17855;BME280;9053;53.358;6.382;2023-02-03T04:11:39;101803.44;;;9.18;100.00
17855;BME280;9053;53.358;6.382;2023-02-03T04:14:21;101809.59;;;9.19;100.00
17855;BME280;9053;53.358;6.382;2023-02-03T04:16:51;101814.06;;;9.20;100.00
17855;BME280;9053;53.358;6.382;2023-02-03T04:19:20;101793.13;;;9.21;100.00
17855;BME280;9053;53.358;6.382;2023-02-03T04:21:53;101801.88;;;9.22;100.00
17855;BME280;9053;53.358;6.382;2023-02-03T04:24:23;101796.63;;;9.22;100.00
17855;BME280;9053;53.358;6.382;2023-02-03T04:26:52;101814.22;;;9.23;100.00
17855;BME280;9053;53.358;6.382;2023-02-03T04:29:22;101784.50;;;9.24;100.00
17855;BME280;9053;53.358;6.382;2023-02-03T04:31:52;101786.34;;;9.25;100.00
17855;BME280;9053;53.358;6.382;2023-02-03T04:34:22;101792.47;;;9.25;100.00
17855;BME280;9053;53.358;6.382;2023-02-03T04:36:54;101804.88;;;9.28;100.00
17855;BME280;9053;53.358;6.382;2023-02-03T04:39:24;101782.88;;;9.26;100.00
17855;BME280;9053;53.358;6.382;2023-02-03T04:41:54;101797.72;;;9.25;100.00
17855;BME280;9053;53.358;6.382;2023-02-03T04:44:23;101804.75;;;9.26;100.00
17855;BME280;9053;53.358;6.382;2023-02-03T04:46:53;101815.38;;;9.28;100.00
17855;BME280;9053;53.358;6.382;2023-02-03T04:49:23;101808.38;;;9.28;100.00
17855;BME280;9053;53.358;6.382;2023-02-03T04:51:55;101804.94;;;9.29;100.00
17855;BME280;9053;53.358;6.382;2023-02-03T04:54:25;101790.91;;;9.29;100.00
17855;BME280;9053;53.358;6.382;2023-02-03T04:56:55;101808.53;;;9.31;100.00
17855;BME280;9053;53.358;6.382;2023-02-03T04:59:24;101798.03;;;9.31;100.00
17855;BME280;9053;53.358;6.382;2023-02-03T05:01:54;101791.00;;;9.30;100.00
17855;BME280;9053;53.358;6.382;2023-02-03T05:04:24;101800.50;;;9.28;100.00
17855;BME280;9053;53.358;6.382;2023-02-03T05:06:57;101795.16;;;9.27;100.00
17855;BME280;9053;53.358;6.382;2023-02-03T05:09:27;101768.00;;;9.26;100.00
17855;BME280;9053;53.358;6.382;2023-02-03T05:11:56;101794.25;;;9.26;100.00
17855;BME280;9053;53.358;6.382;2023-02-03T05:14:26;101792.53;;;9.27;100.00
17855;BME280;9053;53.358;6.382;2023-02-03T05:16:56;101807.56;;;9.29;100.00
17855;BME280;9053;53.358;6.382;2023-02-03T05:19:26;101813.72;;;9.30;100.00
17855;BME280;9053;53.358;6.382;2023-02-03T05:21:58;101804.94;;;9.29;100.00
17855;BME280;9053;53.358;6.382;2023-02-03T05:24:28;101789.16;;;9.29;100.00
17855;BME280;9053;53.358;6.382;2023-02-03T05:26:57;101795.34;;;9.30;100.00
17855;BME280;9053;53.358;6.382;2023-02-03T05:29:27;101801.50;;;9.30;100.00
17855;BME280;9053;53.358;6.382;2023-02-03T05:31:57;101807.56;;;9.29;100.00
17855;BME280;9053;53.358;6.382;2023-02-03T05:34:27;101805.91;;;9.31;100.00
17855;BME280;9053;53.358;6.382;2023-02-03T05:36:59;101786.66;;;9.31;100.00
17855;BME280;9053;53.358;6.382;2023-02-03T05:39:29;101788.28;;;9.29;100.00
17855;BME280;9053;53.358;6.382;2023-02-03T05:41:59;101783.78;;;9.26;100.00
17855;BME280;9053;53.358;6.382;2023-02-03T05:44:27;101800.25;;;9.24;100.00
17855;BME280;9053;53.358;6.382;2023-02-03T05:46:58;101782.78;;;9.24;100.00
17855;BME280;9053;53.358;6.382;2023-02-03T05:49:27;101792.38;;;9.24;100.00
17855;BME280;9053;53.358;6.382;2023-02-03T05:52:00;101779.34;;;9.25;100.00
17855;BME280;9053;53.358;6.382;2023-02-03T05:54:30;101792.38;;;9.24;100.00
17855;BME280;9053;53.358;6.382;2023-02-03T05:57:00;101796.81;;;9.25;100.00
17855;BME280;9053;53.358;6.382;2023-02-03T05:59:29;101791.59;;;9.25;100.00
17855;BME280;9053;53.358;6.382;2023-02-03T06:01:59;101797.72;;;9.25;100.00
17855;BME280;9053;53.358;6.382;2023-02-03T06:04:29;101788.13;;;9.26;100.00
17855;BME280;9053;53.358;6.382;2023-02-03T06:07:01;101783.72;;;9.25;100.00
17855;BME280;9053;53.358;6.382;2023-02-03T06:09:31;101788.03;;;9.24;100.00
17855;BME280;9053;53.358;6.382;2023-02-03T06:12:01;101792.38;;;9.24;100.00
17855;BME280;9053;53.358;6.382;2023-02-03T06:14:31;101781.88;;;9.24;100.00
17855;BME280;9053;53.358;6.382;2023-02-03T06:17:00;101787.06;;;9.22;100.00
17855;BME280;9053;53.358;6.382;2023-02-03T06:19:30;101786.13;;;9.22;100.00
17855;BME280;9053;53.358;6.382;2023-02-03T06:22:03;101787.97;;;9.23;100.00
17855;BME280;9053;53.358;6.382;2023-02-03T06:24:32;101784.34;;;9.21;100.00
17855;BME280;9053;53.358;6.382;2023-02-03T06:27:02;101799.19;;;9.20;100.00
17855;BME280;9053;53.358;6.382;2023-02-03T06:29:32;101798.31;;;9.20;100.00
17855;BME280;9053;53.358;6.382;2023-02-03T06:32:02;101792.13;;;9.19;100.00
17855;BME280;9053;53.358;6.382;2023-02-03T06:34:32;101788.69;;;9.20;100.00
17855;BME280;9053;53.358;6.382;2023-02-03T06:37:05;101790.50;;;9.21;100.00
17855;BME280;9053;53.358;6.382;2023-02-03T06:39:35;101798.38;;;9.21;100.00
17855;BME280;9053;53.358;6.382;2023-02-03T06:42:05;101785.19;;;9.20;100.00
17855;BME280;9053;53.358;6.382;2023-02-03T06:44:35;101804.34;;;9.19;100.00
17855;BME280;9053;53.358;6.382;2023-02-03T06:47:04;101802.56;;;9.18;100.00
17855;BME280;9053;53.358;6.382;2023-02-03T06:49:34;101807.81;;;9.18;100.00
17855;BME280;9053;53.358;6.382;2023-02-03T06:52:07;101807.72;;;9.16;100.00
17855;BME280;9053;53.358;6.382;2023-02-03T06:54:36;101812.16;;;9.17;100.00
17855;BME280;9053;53.358;6.382;2023-02-03T06:57:06;101813.84;;;9.17;100.00
17855;BME280;9053;53.358;6.382;2023-02-03T06:59:36;101826.97;;;9.17;100.00
17855;BME280;9053;53.358;6.382;2023-02-03T07:02:06;101834.06;;;9.18;100.00
17855;BME280;9053;53.358;6.382;2023-02-03T07:04:35;101841.03;;;9.17;100.00
17855;BME280;9053;53.358;6.382;2023-02-03T07:07:08;101841.19;;;9.20;100.00
17855;BME280;9053;53.358;6.382;2023-02-03T07:09:38;101861.34;;;9.21;100.00
17855;BME280;9053;53.358;6.382;2023-02-03T07:12:09;101855.31;;;9.22;100.00
17855;BME280;9053;53.358;6.382;2023-02-03T07:14:38;101870.31;;;9.25;100.00
17855;BME280;9053;53.358;6.382;2023-02-03T07:17:08;101860.72;;;9.25;100.00
17855;BME280;9053;53.358;6.382;2023-02-03T07:19:38;101872.13;;;9.26;100.00
17855;BME280;9053;53.358;6.382;2023-02-03T07:22:13;101873.91;;;9.27;100.00
17855;BME280;9053;53.358;6.382;2023-02-03T07:24:43;101875.66;;;9.26;100.00
17855;BME280;9053;53.358;6.382;2023-02-03T07:27:13;101874.75;;;9.26;100.00
17855;BME280;9053;53.358;6.382;2023-02-03T07:29:43;101892.22;;;9.25;100.00
17855;BME280;9053;53.358;6.382;2023-02-03T07:32:13;101893.84;;;9.23;100.00
17855;BME280;9053;53.358;6.382;2023-02-03T07:34:43;101892.06;;;9.22;100.00
17855;BME280;9053;53.358;6.382;2023-02-03T07:37:15;101901.63;;;9.22;100.00
17855;BME280;9053;53.358;6.382;2023-02-03T07:39:45;101902.47;;;9.21;100.00
17855;BME280;9053;53.358;6.382;2023-02-03T07:42:15;101903.19;;;9.18;100.00
17855;BME280;9053;53.358;6.382;2023-02-03T07:44:44;101914.59;;;9.19;100.00
17855;BME280;9053;53.358;6.382;2023-02-03T07:47:14;101915.41;;;9.18;100.00
17855;BME280;9053;53.358;6.382;2023-02-03T07:49:44;101906.66;;;9.17;100.00
17855;BME280;9053;53.358;6.382;2023-02-03T07:52:16;101897.84;;;9.17;100.00
17855;BME280;9053;53.358;6.382;2023-02-03T07:54:47;101901.41;;;9.17;100.00
17855;BME280;9053;53.358;6.382;2023-02-03T07:57:17;101900.47;;;9.17;100.00
17855;BME280;9053;53.358;6.382;2023-02-03T07:59:47;101911.78;;;9.16;100.00
17855;BME280;9053;53.358;6.382;2023-02-03T08:02:17;101896.06;;;9.16;100.00
17855;BME280;9053;53.358;6.382;2023-02-03T08:04:47;101910.97;;;9.17;100.00
17855;BME280;9053;53.358;6.382;2023-02-03T08:07:20;101919.03;;;9.20;100.00
17855;BME280;9053;53.358;6.382;2023-02-03T08:09:50;101917.31;;;9.20;100.00
17855;BME280;9053;53.358;6.382;2023-02-03T08:12:20;101912.06;;;9.20;100.00
17855;BME280;9053;53.358;6.382;2023-02-03T08:14:49;101920.84;;;9.21;100.00
17855;BME280;9053;53.358;6.382;2023-02-03T08:17:20;101911.22;;;9.21;100.00
17855;BME280;9053;53.358;6.382;2023-02-03T08:19:50;101921.84;;;9.23;100.00
17855;BME280;9053;53.358;6.382;2023-02-03T08:22:22;101922.81;;;9.25;100.00
17855;BME280;9053;53.358;6.382;2023-02-03T08:24:52;101939.47;;;9.25;100.00
17855;BME280;9053;53.358;6.382;2023-02-03T08:27:22;101942.38;;;9.30;100.00
17855;BME280;9053;53.358;6.382;2023-02-03T08:29:52;101931.75;;;9.28;100.00
17855;BME280;9053;53.358;6.382;2023-02-03T08:32:22;101947.78;;;9.33;100.00
17855;BME280;9053;53.358;6.382;2023-02-03T08:34:52;101958.44;;;9.36;100.00
17855;BME280;9053;53.358;6.382;2023-02-03T08:37:25;101956.81;;;9.38;100.00
17855;BME280;9053;53.358;6.382;2023-02-03T08:39:58;101956.97;;;9.41;100.00
17855;BME280;9053;53.358;6.382;2023-02-03T08:42:28;101949.28;;;9.44;100.00
17855;BME280;9053;53.358;6.382;2023-02-03T08:44:58;101964.41;;;9.48;100.00
17855;BME280;9053;53.358;6.382;2023-02-03T08:47:30;101956.50;;;9.48;100.00
17855;BME280;9053;53.358;6.382;2023-02-03T08:50:03;101964.56;;;9.51;100.00
17855;BME280;9053;53.358;6.382;2023-02-03T08:52:36;101965.38;;;9.50;100.00
17855;BME280;9053;53.358;6.382;2023-02-03T08:55:07;101954.88;;;9.50;100.00
17855;BME280;9053;53.358;6.382;2023-02-03T08:57:37;101970.63;;;9.50;100.00
17855;BME280;9053;53.358;6.382;2023-02-03T09:00:09;101977.69;;;9.51;100.00
17855;BME280;9053;53.358;6.382;2023-02-03T09:02:39;101988.28;;;9.53;100.00
17855;BME280;9053;53.358;6.382;2023-02-03T09:05:09;101991.91;;;9.55;100.00
17855;BME280;9053;53.358;6.382;2023-02-03T09:07:42;101989.34;;;9.57;100.00
17855;BME280;9053;53.358;6.382;2023-02-03T09:10:12;101999.13;;;9.59;100.00
17855;BME280;9053;53.358;6.382;2023-02-03T09:12:42;101995.50;;;9.57;100.00
17855;BME280;9053;53.358;6.382;2023-02-03T09:15:12;101993.81;;;9.58;100.00
17855;BME280;9053;53.358;6.382;2023-02-03T09:17:41;101999.06;;;9.58;100.00
17855;BME280;9053;53.358;6.382;2023-02-03T09:20:11;101998.97;;;9.56;100.00
17855;BME280;9053;53.358;6.382;2023-02-03T09:22:44;102002.41;;;9.55;100.00
17855;BME280;9053;53.358;6.382;2023-02-03T09:25:14;102004.31;;;9.58;100.00
17855;BME280;9053;53.358;6.382;2023-02-03T09:27:44;102020.13;;;9.59;100.00
17855;BME280;9053;53.358;6.382;2023-02-03T09:30:15;102022.78;;;9.59;100.00
17855;BME280;9053;53.358;6.382;2023-02-03T09:32:45;102029.91;;;9.62;100.00
17855;BME280;9053;53.358;6.382;2023-02-03T09:35:20;102026.38;;;9.61;100.00
17855;BME280;9053;53.358;6.382;2023-02-03T09:37:52;102044.03;;;9.64;100.00
17855;BME280;9053;53.358;6.382;2023-02-03T09:40:26;102056.28;;;9.63;100.00
17855;BME280;9053;53.358;6.382;2023-02-03T09:43:07;102051.09;;;9.65;100.00
17855;BME280;9053;53.358;6.382;2023-02-03T09:45:40;102058.97;;;9.65;100.00
17855;BME280;9053;53.358;6.382;2023-02-03T09:48:13;102054.72;;;9.67;100.00
17855;BME280;9053;53.358;6.382;2023-02-03T09:50:45;102071.38;;;9.67;100.00
17855;BME280;9053;53.358;6.382;2023-02-03T09:53:26;102066.22;;;9.69;100.00
17855;BME280;9053;53.358;6.382;2023-02-03T09:55:57;102073.22;;;9.68;100.00
17855;BME280;9053;53.358;6.382;2023-02-03T09:58:31;102084.63;;;9.69;100.00
17855;BME280;9053;53.358;6.382;2023-02-03T10:01:03;102081.09;;;9.68;100.00
17855;BME280;9053;53.358;6.382;2023-02-03T10:03:42;102076.91;;;9.72;100.00
17855;BME280;9053;53.358;6.382;2023-02-03T10:06:22;102092.66;;;9.72;100.00
17855;BME280;9053;53.358;6.382;2023-02-03T10:09:18;102093.66;;;9.74;100.00
17855;BME280;9053;53.358;6.382;2023-02-03T10:12:10;102103.28;;;9.73;100.00
17855;BME280;9053;53.358;6.382;2023-02-03T10:14:54;102095.47;;;9.75;100.00
17855;BME280;9053;53.358;6.382;2023-02-03T10:17:33;102108.69;;;9.77;100.00
17855;BME280;9053;53.358;6.382;2023-02-03T10:20:11;102125.47;;;9.79;100.00
17855;BME280;9053;53.358;6.382;2023-02-03T10:22:47;102121.22;;;9.81;100.00
17855;BME280;9053;53.358;6.382;2023-02-03T10:25:29;102137.03;;;9.82;100.00
17855;BME280;9053;53.358;6.382;2023-02-03T10:28:03;102137.25;;;9.85;100.00
17855;BME280;9053;53.358;6.382;2023-02-03T10:30:40;102145.19;;;9.87;100.00
17855;BME280;9053;53.358;6.382;2023-02-03T10:33:13;102150.53;;;9.88;100.00
17855;BME280;9053;53.358;6.382;2023-02-03T10:35:49;102151.44;;;9.89;100.00
17855;BME280;9053;53.358;6.382;2023-02-03T10:38:28;102154.06;;;9.89;100.00
17855;BME280;9053;53.358;6.382;2023-02-03T10:41:07;102157.53;;;9.88;100.00
17855;BME280;9053;53.358;6.382;2023-02-03T10:43:37;102152.19;;;9.86;100.00
17855;BME280;9053;53.358;6.382;2023-02-03T10:46:19;102153.91;;;9.86;100.00
17855;BME280;9053;53.358;6.382;2023-02-03T10:48:50;102159.31;;;9.89;100.00
17855;BME280;9053;53.358;6.382;2023-02-03T10:51:24;102162.06;;;9.90;100.00
17855;BME280;9053;53.358;6.382;2023-02-03T10:53:56;102161.06;;;9.88;100.00
17855;BME280;9053;53.358;6.382;2023-02-03T10:56:31;102157.59;;;9.89;100.00
17855;BME280;9053;53.358;6.382;2023-02-03T10:59:04;102173.31;;;9.88;100.00
17855;BME280;9053;53.358;6.382;2023-02-03T11:01:39;102166.16;;;9.85;100.00
17855;BME280;9053;53.358;6.382;2023-02-03T11:04:23;102175.09;;;9.89;100.00
17855;BME280;9053;53.358;6.382;2023-02-03T11:06:56;102175.94;;;9.88;100.00
17855;BME280;9053;53.358;6.382;2023-02-03T11:09:31;102180.34;;;9.89;100.00
17855;BME280;9053;53.358;6.382;2023-02-03T11:12:16;102183.88;;;9.89;100.00
17855;BME280;9053;53.358;6.382;2023-02-03T11:14:48;102196.00;;;9.87;100.00
17855;BME280;9053;53.358;6.382;2023-02-03T11:17:20;102186.22;;;9.85;100.00
17855;BME280;9053;53.358;6.382;2023-02-03T11:19:54;102199.31;;;9.83;100.00
17855;BME280;9053;53.358;6.382;2023-02-03T11:22:29;102194.22;;;9.86;100.00
17855;BME280;9053;53.358;6.382;2023-02-03T11:25:01;102202.94;;;9.85;100.00
17855;BME280;9053;53.358;6.382;2023-02-03T11:27:35;102197.69;;;9.85;100.00
17855;BME280;9053;53.358;6.382;2023-02-03T11:30:13;102189.84;;;9.87;100.00
17855;BME280;9053;53.358;6.382;2023-02-03T11:32:45;102192.66;;;9.90;100.00
17855;BME280;9053;53.358;6.382;2023-02-03T11:35:17;102199.66;;;9.89;100.00
17855;BME280;9053;53.358;6.382;2023-02-03T11:37:51;102203.84;;;9.86;100.00
17855;BME280;9053;53.358;6.382;2023-02-03T11:40:26;102224.75;;;9.84;100.00
17855;BME280;9053;53.358;6.382;2023-02-03T11:43:03;102209.88;;;9.85;100.00
17855;BME280;9053;53.358;6.382;2023-02-03T11:45:37;102201.94;;;9.83;100.00
17855;BME280;9053;53.358;6.382;2023-02-03T11:48:23;102200.09;;;9.82;100.00
17855;BME280;9053;53.358;6.382;2023-02-03T11:51:01;102216.88;;;9.84;100.00
17855;BME280;9053;53.358;6.382;2023-02-03T11:53:44;102226.47;;;9.84;100.00
17855;BME280;9053;53.358;6.382;2023-02-03T11:56:30;102212.63;;;9.86;100.00
17855;BME280;9053;53.358;6.382;2023-02-03T12:02:36;102231.63;;;9.97;100.00
17855;BME280;9053;53.358;6.382;2023-02-03T12:05:28;102222.22;;;10.01;100.00
17855;BME280;9053;53.358;6.382;2023-02-03T12:08:08;102229.63;;;10.08;100.00
17855;BME280;9053;53.358;6.382;2023-02-03T12:10:53;102230.63;;;10.10;100.00
17855;BME280;9053;53.358;6.382;2023-02-03T12:13:36;102231.34;;;10.07;100.00
17855;BME280;9053;53.358;6.382;2023-02-03T12:16:20;102220.66;;;10.04;100.00
17855;BME280;9053;53.358;6.382;2023-02-03T12:19:03;102225.91;;;10.04;100.00
17855;BME280;9053;53.358;6.382;2023-02-03T12:21:42;102225.19;;;10.07;100.00
17855;BME280;9053;53.358;6.382;2023-02-03T12:24:28;102228.72;;;10.07;100.00
17855;BME280;9053;53.358;6.382;2023-02-03T12:27:13;102244.22;;;10.03;100.00
17855;BME280;9053;53.358;6.382;2023-02-03T12:29:51;102241.59;;;10.03;100.00
17855;BME280;9053;53.358;6.382;2023-02-03T12:32:26;102250.41;;;10.03;100.00
17855;BME280;9053;53.358;6.382;2023-02-03T12:35:10;102251.31;;;10.04;100.00
17855;BME280;9053;53.358;6.382;2023-02-03T12:37:46;102263.28;;;9.99;100.00
17855;BME280;9053;53.358;6.382;2023-02-03T12:40:22;102258.56;;;9.93;100.00
17855;BME280;9053;53.358;6.382;2023-02-03T12:42:57;102268.97;;;9.91;100.00
17855;BME280;9053;53.358;6.382;2023-02-03T12:45:32;102274.84;;;9.87;100.00
17855;BME280;9053;53.358;6.382;2023-02-03T12:48:09;102280.84;;;9.85;99.83
17855;BME280;9053;53.358;6.382;2023-02-03T12:50:47;102277.91;;;9.80;99.74
17855;BME280;9053;53.358;6.382;2023-02-03T12:53:20;102270.69;;;9.76;99.52
17855;BME280;9053;53.358;6.382;2023-02-03T12:55:57;102263.53;;;9.73;99.20
17855;BME280;9053;53.358;6.382;2023-02-03T12:58:31;102264.97;;;9.68;99.09
17855;BME280;9053;53.358;6.382;2023-02-03T13:01:06;102271.56;;;9.62;98.89
17855;BME280;9053;53.358;6.382;2023-02-03T13:03:43;102270.50;;;9.58;98.79
17855;BME280;9053;53.358;6.382;2023-02-03T13:06:22;102272.13;;;9.56;98.71
17855;BME280;9053;53.358;6.382;2023-02-03T13:08:59;102276.28;;;9.52;98.73
17855;BME280;9053;53.358;6.382;2023-02-03T13:11:35;102295.47;;;9.51;98.67
17855;BME280;9053;53.358;6.382;2023-02-03T13:14:13;102298.03;;;9.50;98.74
17855;BME280;9053;53.358;6.382;2023-02-03T13:16:48;102295.47;;;9.51;98.78
17855;BME280;9053;53.358;6.382;2023-02-03T13:19:21;102313.06;;;9.52;98.87
17855;BME280;9053;53.358;6.382;2023-02-03T13:21:56;102294.56;;;9.51;98.92
17855;BME280;9053;53.358;6.382;2023-02-03T13:24:28;102288.31;;;9.49;98.85
17855;BME280;9053;53.358;6.382;2023-02-03T13:27:25;102303.34;;;9.51;99.01
17855;BME280;9053;53.358;6.382;2023-02-03T13:30:30;102275.56;;;9.55;99.02
17855;BME280;9053;53.358;6.382;2023-02-03T13:33:41;102283.34;;;9.53;99.06
17855;BME280;9053;53.358;6.382;2023-02-03T13:36:32;102302.34;;;9.49;98.95
17855;BME280;9053;53.358;6.382;2023-02-03T13:39:28;102289.03;;;9.46;98.85